Terminal Aerodrome Forecast
Issued by NWS

Home | Current Version | Previous Version | Text Only | Print | Product List | Glossary On
Versions: 1 2 3 4 5 6 7 8 9 10 11 12 13 14 15 16
000
FTAK31 PAJN 190500
TAFASI
TAF
PASI 190521Z 1906/2006 12012KT P6SM -RA SCT025 OVC040
     FM190900 12012G20KT 6SM -RA BR BKN020 OVC030
     FM191300 14015G25KT 5SM -RA BKN015 OVC030
     FM192000 12010G18KT 6SM -RA OVC015
     FM200300 15006KT P6SM -RA BKN015 OVC025=

USA.gov is the U.S. government's official web portal to all federal, state and local government web resources and services.